Time;durP1;ratioP1;P1;durP2;ratioP2;P2;SDS_P1;SDS_P2;PMS_P1;PMS_P2;Temp;Humidity;BMP_temperature;BMP_pressure;BME280_temperature;BME280_humidity;BME280_pressure;Samples;Min_cycle;Max_cycle;Signal;HPM_P1;HPM_P2
2021/12/12 00:00:04;;;;;;;82.10;31.77;;;;;;;;;;5002418;28;20182;-72
2021/12/12 00:03:21;;;;;;;81.63;32.90;;;;;;;;;;5006201;28;20181;-73
2021/12/12 00:05:20;;;;;;;77.87;31.80;;;;;;;;;;4986270;28;20639;-72
2021/12/12 00:07:46;;;;;;;81.53;32.03;;;;;;;;;;5005318;28;20266;-72
2021/12/12 00:10:16;;;;;;;74.07;32.27;;;;;;;;;;4997079;28;20334;-72
2021/12/12 00:12:45;;;;;;;70.73;31.20;;;;;;;;;;5009214;28;20210;-72
2021/12/12 00:15:15;;;;;;;69.93;31.30;;;;;;;;;;4995011;28;20631;-72
2021/12/12 00:17:40;;;;;;;75.80;29.53;;;;;;;;;;5016730;28;20207;-72
2021/12/12 00:20:08;;;;;;;67.10;30.63;;;;;;;;;;4996749;28;20681;-72
2021/12/12 00:22:34;;;;;;;73.53;33.50;;;;;;;;;;5009317;28;20559;-73
2021/12/12 00:25:00;;;;;;;82.03;34.77;;;;;;;;;;4997052;28;20198;-73
2021/12/12 00:27:25;;;;;;;70.90;32.17;;;;;;;;;;5002971;28;20183;-72
2021/12/12 00:29:51;;;;;;;70.40;29.73;;;;;;;;;;4998303;28;20229;-72
2021/12/12 00:32:19;;;;;;;66.57;29.90;;;;;;;;;;5013409;28;20316;-73
2021/12/12 00:34:57;;;;;;;66.13;30.40;;;;;;;;;;5004097;28;20218;-72
2021/12/12 00:37:23;;;;;;;61.47;28.63;;;;;;;;;;5012545;28;20672;-73
2021/12/12 00:39:52;;;;;;;62.07;28.90;;;;;;;;;;5004585;28;20315;-73
2021/12/12 00:42:20;;;;;;;62.37;28.63;;;;;;;;;;5000970;28;20198;-72
2021/12/12 00:44:49;;;;;;;54.33;26.57;;;;;;;;;;5004361;28;20201;-72
2021/12/12 00:47:16;;;;;;;59.63;26.67;;;;;;;;;;4992986;28;20638;-73
2021/12/12 00:49:42;;;;;;;60.93;26.57;;;;;;;;;;5001757;28;20181;-72
2021/12/12 00:52:12;;;;;;;63.83;26.80;;;;;;;;;;4999064;28;20289;-73
2021/12/12 00:54:39;;;;;;;56.57;25.20;;;;;;;;;;5003744;28;20292;-73
2021/12/12 00:57:07;;;;;;;58.77;25.80;;;;;;;;;;4997699;28;20257;-73
2021/12/12 00:59:34;;;;;;;63.63;25.53;;;;;;;;;;5007575;28;20715;-73
2021/12/12 01:02:00;;;;;;;56.30;24.93;;;;;;;;;;4992613;28;20666;-72
2021/12/12 01:04:33;;;;;;;62.73;25.43;;;;;;;;;;4997349;28;20263;-72
2021/12/12 01:07:04;;;;;;;60.70;25.60;;;;;;;;;;4996600;28;20195;-72
2021/12/12 01:09:36;;;;;;;52.40;23.30;;;;;;;;;;5007638;28;20209;-72
2021/12/12 01:12:08;;;;;;;51.60;22.93;;;;;;;;;;4996154;28;20187;-74
2021/12/12 01:14:37;;;;;;;47.53;21.97;;;;;;;;;;5018647;28;20543;-72
2021/12/12 01:17:11;;;;;;;49.07;22.20;;;;;;;;;;5000055;28;20522;-73
2021/12/12 01:19:44;;;;;;;51.73;22.70;;;;;;;;;;5005362;28;20705;-73
2021/12/12 01:22:16;;;;;;;54.97;21.90;;;;;;;;;;5012130;28;20394;-73
2021/12/12 01:24:46;;;;;;;48.80;22.47;;;;;;;;;;5018567;28;20289;-73
2021/12/12 01:27:13;;;;;;;49.53;21.67;;;;;;;;;;5008513;28;20179;-73
2021/12/12 01:29:40;;;;;;;49.80;21.67;;;;;;;;;;5003135;28;20190;-73
2021/12/12 01:32:12;;;;;;;51.17;21.97;;;;;;;;;;5004368;28;20553;-73
2021/12/12 01:34:39;;;;;;;42.13;21.03;;;;;;;;;;4997730;28;20195;-73
2021/12/12 01:37:33;;;;;;;44.93;22.03;;;;;;;;;;5009261;28;20214;-72
2021/12/12 01:40:00;;;;;;;44.77;20.43;;;;;;;;;;4999991;28;20306;-73
2021/12/12 01:42:32;;;;;;;43.10;19.40;;;;;;;;;;5007108;28;20625;-73
2021/12/12 01:45:10;;;;;;;46.43;20.40;;;;;;;;;;5001047;28;20536;-73
2021/12/12 01:47:37;;;;;;;47.30;19.90;;;;;;;;;;5010575;28;20558;-73
2021/12/12 01:50:09;;;;;;;41.63;20.43;;;;;;;;;;4996261;28;20199;-73
2021/12/12 01:52:36;;;;;;;41.33;20.03;;;;;;;;;;5003636;28;20201;-73
2021/12/12 01:55:23;;;;;;;40.20;19.80;;;;;;;;;;5001481;28;20781;-73
2021/12/12 01:57:55;;;;;;;45.07;21.03;;;;;;;;;;5005224;28;20257;-73
2021/12/12 02:00:33;;;;;;;40.83;18.80;;;;;;;;;;4999032;28;20581;-74
2021/12/12 02:02:59;;;;;;;48.90;19.37;;;;;;;;;;5005891;28;20268;-73
2021/12/12 02:05:26;;;;;;;42.80;19.03;;;;;;;;;;5000359;28;20194;-73
2021/12/12 02:07:57;;;;;;;47.93;19.60;;;;;;;;;;5007035;28;20195;-73
2021/12/12 02:10:29;;;;;;;38.87;18.13;;;;;;;;;;4995357;28;20708;-73
2021/12/12 02:12:59;;;;;;;40.63;19.17;;;;;;;;;;5022098;28;20669;-73
2021/12/12 02:15:24;;;;;;;35.20;17.50;;;;;;;;;;4999495;28;20225;-73
2021/12/12 02:17:51;;;;;;;36.03;17.23;;;;;;;;;;5010072;28;20227;-73
2021/12/12 02:20:34;;;;;;;43.00;16.80;;;;;;;;;;5008856;28;20693;-73
2021/12/12 02:23:12;;;;;;;36.63;16.90;;;;;;;;;;5006678;28;20199;-73
2021/12/12 02:36:42;;;;;;;33.03;14.93;;;;;;;;;;4997645;28;20225;-73
2021/12/12 02:39:15;;;;;;;38.73;15.17;;;;;;;;;;5008534;28;20186;-73
2021/12/12 02:41:46;;;;;;;40.67;14.83;;;;;;;;;;4999828;28;20201;-73
2021/12/12 02:44:12;;;;;;;33.37;14.37;;;;;;;;;;5002609;28;20591;-73
2021/12/12 02:46:41;;;;;;;28.40;14.70;;;;;;;;;;4998355;28;20179;-74
2021/12/12 02:49:23;;;;;;;37.57;13.23;;;;;;;;;;5008340;28;20186;-73
2021/12/12 02:51:49;;;;;;;30.53;13.07;;;;;;;;;;5002508;28;20178;-75
2021/12/12 02:54:15;;;;;;;33.27;13.77;;;;;;;;;;5004116;28;20190;-73
2021/12/12 02:56:44;;;;;;;34.43;13.50;;;;;;;;;;5003807;28;20196;-73
2021/12/12 02:59:12;;;;;;;27.27;12.50;;;;;;;;;;4999785;28;20218;-73
2021/12/12 03:01:50;;;;;;;34.83;13.47;;;;;;;;;;5003173;28;20591;-73
2021/12/12 03:04:16;;;;;;;34.50;12.87;;;;;;;;;;4997989;28;20222;-74
2021/12/12 03:06:43;;;;;;;30.50;13.30;;;;;;;;;;5006136;28;20666;-73
2021/12/12 03:09:16;;;;;;;31.30;13.13;;;;;;;;;;4998036;28;20195;-72
2021/12/12 03:11:43;;;;;;;33.77;13.40;;;;;;;;;;5019991;28;20273;-73
2021/12/12 03:14:12;;;;;;;32.53;13.63;;;;;;;;;;4997263;28;20276;-73
2021/12/12 03:16:38;;;;;;;27.33;13.10;;;;;;;;;;5003835;28;20217;-73
2021/12/12 03:19:05;;;;;;;31.27;13.13;;;;;;;;;;4998155;28;20701;-74
2021/12/12 03:21:34;;;;;;;28.73;12.17;;;;;;;;;;5005580;28;20190;-74
2021/12/12 03:24:04;;;;;;;24.30;12.47;;;;;;;;;;4995025;28;20189;-73
2021/12/12 03:26:30;;;;;;;24.27;11.70;;;;;;;;;;5006813;28;20213;-73
2021/12/12 03:28:58;;;;;;;19.97;11.30;;;;;;;;;;4999405;28;20194;-73
2021/12/12 03:31:33;;;;;;;29.20;12.77;;;;;;;;;;5008535;28;20321;-74
2021/12/12 03:34:00;;;;;;;30.63;12.37;;;;;;;;;;5000502;28;20215;-73
2021/12/12 03:36:26;;;;;;;29.13;13.30;;;;;;;;;;5004395;28;20224;-73
2021/12/12 03:38:56;;;;;;;24.53;11.73;;;;;;;;;;5010067;28;20265;-73
2021/12/12 03:41:27;;;;;;;24.77;13.63;;;;;;;;;;5000095;28;20186;-73
2021/12/12 03:43:57;;;;;;;25.50;11.43;;;;;;;;;;5013324;28;20185;-74
2021/12/12 03:46:23;;;;;;;30.80;12.03;;;;;;;;;;4999758;28;20634;-73
2021/12/12 03:48:48;;;;;;;27.13;12.13;;;;;;;;;;5007824;28;20260;-73
2021/12/12 03:51:16;;;;;;;28.43;11.80;;;;;;;;;;4995638;28;20183;-74
2021/12/12 03:53:42;;;;;;;33.20;11.67;;;;;;;;;;5014813;28;20190;-73
2021/12/12 03:56:10;;;;;;;29.20;12.03;;;;;;;;;;5000986;28;20505;-74
2021/12/12 03:58:35;;;;;;;29.03;11.70;;;;;;;;;;5015734;28;20601;-73
2021/12/12 04:01:21;;;;;;;22.97;11.50;;;;;;;;;;4996625;28;20238;-73
2021/12/12 04:03:48;;;;;;;30.80;11.67;;;;;;;;;;5005873;28;20191;-73
2021/12/12 04:06:16;;;;;;;26.27;11.37;;;;;;;;;;4994017;28;20209;-74
2021/12/12 04:08:48;;;;;;;30.40;10.70;;;;;;;;;;5007610;28;20218;-74
2021/12/12 04:11:38;;;;;;;36.57;12.77;;;;;;;;;;4998571;28;20332;-74
2021/12/12 04:14:05;;;;;;;25.23;11.50;;;;;;;;;;5004766;28;20189;-73
2021/12/12 04:16:34;;;;;;;33.33;12.37;;;;;;;;;;4992676;28;20693;-73
2021/12/12 04:19:00;;;;;;;27.07;10.40;;;;;;;;;;5005632;28;20282;-74
2021/12/12 04:21:27;;;;;;;26.93;11.67;;;;;;;;;;4999559;28;20622;-73
2021/12/12 04:23:55;;;;;;;26.00;11.60;;;;;;;;;;5008125;28;20283;-74
2021/12/12 04:26:30;;;;;;;25.03;12.07;;;;;;;;;;5003123;28;20208;-74
2021/12/12 04:29:13;;;;;;;31.63;11.07;;;;;;;;;;4995258;28;20194;-74
2021/12/12 04:31:42;;;;;;;31.27;11.20;;;;;;;;;;5005246;28;20179;-73
2021/12/12 04:34:08;;;;;;;29.63;11.87;;;;;;;;;;4996187;28;20532;-74
2021/12/12 04:36:38;;;;;;;28.10;10.57;;;;;;;;;;5003765;28;20359;-74
2021/12/12 04:39:07;;;;;;;34.33;11.07;;;;;;;;;;4995850;28;20178;-73
2021/12/12 04:41:33;;;;;;;27.57;10.87;;;;;;;;;;5015514;28;20301;-74
2021/12/12 04:43:59;;;;;;;25.53;10.07;;;;;;;;;;4998520;28;20763;-73
2021/12/12 04:46:36;;;;;;;25.90;11.60;;;;;;;;;;5013809;28;20183;-74
2021/12/12 04:52:00;;;;;;;30.23;10.80;;;;;;;;;;5001174;28;20573;-74
2021/12/12 04:54:36;;;;;;;25.50;10.67;;;;;;;;;;4996420;28;20213;-74
2021/12/12 04:57:18;;;;;;;27.50;10.57;;;;;;;;;;5007270;28;20202;-73
2021/12/12 04:59:54;;;;;;;24.67;10.17;;;;;;;;;;5007062;28;20186;-73
2021/12/12 05:02:28;;;;;;;20.00;9.87;;;;;;;;;;5003843;28;20200;-74
2021/12/12 05:05:11;;;;;;;20.50;9.57;;;;;;;;;;4997355;28;20599;-74
2021/12/12 05:07:52;;;;;;;21.27;10.33;;;;;;;;;;5004921;28;20540;-75
2021/12/12 05:10:30;;;;;;;23.13;9.53;;;;;;;;;;4997884;28;20190;-74
2021/12/12 05:13:07;;;;;;;23.17;9.70;;;;;;;;;;5001732;28;20236;-74
2021/12/12 05:15:47;;;;;;;19.63;9.63;;;;;;;;;;4998234;28;20626;-75
2021/12/12 05:18:28;;;;;;;21.43;9.40;;;;;;;;;;5003870;28;20575;-74
2021/12/12 05:21:01;;;;;;;18.83;9.23;;;;;;;;;;4992298;28;20579;-74
2021/12/12 05:23:29;;;;;;;17.00;8.70;;;;;;;;;;5018336;28;20673;-75
2021/12/12 05:26:01;;;;;;;16.40;8.77;;;;;;;;;;5010601;28;20216;-77
2021/12/12 05:28:31;;;;;;;20.27;8.23;;;;;;;;;;5002586;28;20675;-74
2021/12/12 05:31:00;;;;;;;13.87;8.27;;;;;;;;;;4996772;28;20194;-75
2021/12/12 05:33:27;;;;;;;22.97;9.07;;;;;;;;;;5005060;28;20187;-75
2021/12/12 05:35:53;;;;;;;16.77;7.80;;;;;;;;;;4995896;28;20672;-74
2021/12/12 05:38:22;;;;;;;15.57;7.43;;;;;;;;;;5008111;28;20187;-75
2021/12/12 05:40:49;;;;;;;14.60;7.63;;;;;;;;;;4997934;28;20191;-74
2021/12/12 05:43:15;;;;;;;10.83;7.43;;;;;;;;;;5008772;28;20197;-75
2021/12/12 05:45:41;;;;;;;13.53;7.50;;;;;;;;;;5011549;28;20622;-75
2021/12/12 05:48:09;;;;;;;13.20;7.70;;;;;;;;;;5006264;28;20226;-75
2021/12/12 05:50:35;;;;;;;16.83;7.40;;;;;;;;;;5004093;28;20197;-75
2021/12/12 05:53:00;;;;;;;11.73;7.17;;;;;;;;;;5001219;28;20190;-75
2021/12/12 05:55:29;;;;;;;15.23;7.23;;;;;;;;;;5007341;28;20221;-75
2021/12/12 05:57:57;;;;;;;14.60;7.00;;;;;;;;;;4994817;28;20211;-74
2021/12/12 06:00:28;;;;;;;11.33;6.97;;;;;;;;;;5004762;28;20253;-75
2021/12/12 06:02:55;;;;;;;9.57;6.13;;;;;;;;;;4998473;28;20195;-75
2021/12/12 06:05:21;;;;;;;9.97;6.60;;;;;;;;;;5009052;28;20643;-75
2021/12/12 06:07:46;;;;;;;12.50;6.47;;;;;;;;;;4997684;28;20188;-74
2021/12/12 06:10:16;;;;;;;10.40;6.63;;;;;;;;;;4995038;28;20278;-74
2021/12/12 06:12:42;;;;;;;10.10;6.53;;;;;;;;;;4997975;28;20179;-75
2021/12/12 06:15:10;;;;;;;9.43;5.97;;;;;;;;;;5009237;28;20198;-74
2021/12/12 06:17:38;;;;;;;12.60;6.20;;;;;;;;;;4998809;28;20215;-74
2021/12/12 06:20:04;;;;;;;11.10;6.37;;;;;;;;;;5005285;28;20593;-74
2021/12/12 06:22:29;;;;;;;12.27;6.77;;;;;;;;;;4997998;28;20535;-74
2021/12/12 06:24:55;;;;;;;11.40;7.30;;;;;;;;;;5008800;28;20191;-74
2021/12/12 06:27:21;;;;;;;11.97;6.63;;;;;;;;;;5001785;28;20191;-74
2021/12/12 06:29:51;;;;;;;11.40;7.10;;;;;;;;;;4998700;28;20240;-75
2021/12/12 06:32:17;;;;;;;11.87;7.03;;;;;;;;;;5002728;28;20642;-74
2021/12/12 06:34:43;;;;;;;10.83;7.03;;;;;;;;;;4995267;28;20570;-76
2021/12/12 06:37:09;;;;;;;10.36;6.74;;;;;;;;;;4654950;28;10000400;-73
2021/12/12 06:39:34;;;;;;;12.93;7.83;;;;;;;;;;4996338;28;20685;-74
2021/12/12 06:42:03;;;;;;;13.97;8.20;;;;;;;;;;4994287;28;20271;-74
2021/12/12 06:44:28;;;;;;;15.50;7.63;;;;;;;;;;4988674;28;20192;-74
2021/12/12 06:46:55;;;;;;;13.43;7.93;;;;;;;;;;5009016;28;20597;-76
2021/12/12 06:49:23;;;;;;;12.30;7.70;;;;;;;;;;4992957;28;20189;-75
2021/12/12 06:51:52;;;;;;;11.93;7.87;;;;;;;;;;4995151;28;20186;-74
2021/12/12 06:54:20;;;;;;;12.60;7.70;;;;;;;;;;4990500;28;20183;-72
2021/12/12 06:56:49;;;;;;;11.63;8.00;;;;;;;;;;4999660;28;20260;-71
2021/12/12 06:59:15;;;;;;;12.20;8.17;;;;;;;;;;4990917;28;20191;-72
2021/12/12 07:01:41;;;;;;;15.83;8.50;;;;;;;;;;5007130;28;20194;-72
2021/12/12 07:04:10;;;;;;;14.90;8.70;;;;;;;;;;5000313;28;20666;-73
2021/12/12 07:06:36;;;;;;;12.60;9.17;;;;;;;;;;4992205;28;20577;-72
2021/12/12 07:09:05;;;;;;;10.70;8.23;;;;;;;;;;5001063;28;20598;-73
2021/12/12 07:11:33;;;;;;;15.67;9.20;;;;;;;;;;4997228;28;20182;-72
2021/12/12 07:13:59;;;;;;;14.47;9.53;;;;;;;;;;5000972;28;20202;-74
2021/12/12 07:16:25;;;;;;;13.70;8.97;;;;;;;;;;4993689;28;20293;-72
2021/12/12 07:18:53;;;;;;;13.17;8.47;;;;;;;;;;5002618;28;20803;-72
2021/12/12 07:21:19;;;;;;;15.13;9.90;;;;;;;;;;4994253;28;20298;-72
2021/12/12 07:23:47;;;;;;;12.20;8.87;;;;;;;;;;4998000;28;20191;-72
2021/12/12 07:26:14;;;;;;;13.47;8.67;;;;;;;;;;4995787;28;20193;-72
2021/12/12 07:28:42;;;;;;;14.03;9.07;;;;;;;;;;4999450;28;20777;-73
2021/12/12 07:31:13;;;;;;;14.53;9.60;;;;;;;;;;4997068;28;20651;-72
2021/12/12 07:33:39;;;;;;;13.43;9.20;;;;;;;;;;4997714;28;20199;-73
2021/12/12 07:36:08;;;;;;;14.73;10.17;;;;;;;;;;4996068;28;20305;-73
2021/12/12 07:38:36;;;;;;;15.47;9.17;;;;;;;;;;5001822;28;20301;-73
2021/12/12 07:41:04;;;;;;;13.23;9.73;;;;;;;;;;5002593;28;20198;-73
2021/12/12 07:43:31;;;;;;;15.40;9.90;;;;;;;;;;4992500;28;20186;-73
2021/12/12 07:45:57;;;;;;;15.57;9.50;;;;;;;;;;5004408;28;20658;-74
2021/12/12 07:48:24;;;;;;;16.27;10.33;;;;;;;;;;4996482;28;20269;-72
2021/12/12 07:50:51;;;;;;;17.00;10.50;;;;;;;;;;5002144;28;20213;-73
2021/12/12 07:53:17;;;;;;;17.37;10.60;;;;;;;;;;4994406;28;20229;-73
2021/12/12 07:55:43;;;;;;;14.20;10.57;;;;;;;;;;4998932;28;20239;-73
2021/12/12 07:58:11;;;;;;;16.67;10.37;;;;;;;;;;4999249;28;20698;-73
2021/12/12 08:00:39;;;;;;;16.40;11.03;;;;;;;;;;5001755;28;20580;-73
2021/12/12 08:03:05;;;;;;;14.53;10.33;;;;;;;;;;4992478;28;20182;-73
2021/12/12 08:05:34;;;;;;;15.93;10.77;;;;;;;;;;5002048;28;20190;-73
2021/12/12 08:08:02;;;;;;;17.10;10.20;;;;;;;;;;4999504;28;20183;-72
2021/12/12 08:10:28;;;;;;;15.83;9.60;;;;;;;;;;5005987;28;20249;-73
2021/12/12 08:12:54;;;;;;;16.00;10.60;;;;;;;;;;5005458;28;20707;-73
2021/12/12 08:15:19;;;;;;;13.90;9.90;;;;;;;;;;5001554;28;20237;-73
2021/12/12 08:17:45;;;;;;;16.37;9.63;;;;;;;;;;5008693;28;20658;-74
2021/12/12 08:20:13;;;;;;;13.43;10.10;;;;;;;;;;4995825;28;20285;-72
2021/12/12 08:22:39;;;;;;;15.90;11.00;;;;;;;;;;5007600;28;20190;-73
2021/12/12 08:25:08;;;;;;;12.87;9.77;;;;;;;;;;4997132;28;20530;-73
2021/12/12 08:27:34;;;;;;;16.93;10.73;;;;;;;;;;5010724;28;20183;-73
2021/12/12 08:30:00;;;;;;;14.43;10.10;;;;;;;;;;4993806;28;20198;-72
2021/12/12 08:32:26;;;;;;;17.73;10.90;;;;;;;;;;4995311;28;20225;-72
2021/12/12 08:34:52;;;;;;;19.27;11.87;;;;;;;;;;4987362;28;20278;-74
2021/12/12 08:37:19;;;;;;;14.33;10.40;;;;;;;;;;5000342;28;20256;-75
2021/12/12 08:39:46;;;;;;;17.30;10.93;;;;;;;;;;4997444;28;20198;-73
2021/12/12 08:42:12;;;;;;;15.47;10.33;;;;;;;;;;5005797;28;20293;-73
2021/12/12 08:44:39;;;;;;;16.37;11.57;;;;;;;;;;4997228;28;20196;-74
2021/12/12 08:47:06;;;;;;;14.73;10.70;;;;;;;;;;5002217;28;20191;-74
2021/12/12 08:49:34;;;;;;;19.07;11.50;;;;;;;;;;5001149;28;20696;-73
2021/12/12 08:52:11;;;;;;;21.70;11.47;;;;;;;;;;4991822;28;20245;-73
2021/12/12 08:54:40;;;;;;;15.90;10.97;;;;;;;;;;4991981;28;20277;-73
2021/12/12 08:57:12;;;;;;;15.27;11.43;;;;;;;;;;4993696;28;20264;-74
2021/12/12 08:59:43;;;;;;;15.37;11.47;;;;;;;;;;5007893;28;20186;-74
2021/12/12 09:02:12;;;;;;;18.57;11.40;;;;;;;;;;4995052;28;20189;-73
2021/12/12 09:05:00;;;;;;;18.17;11.80;;;;;;;;;;5013443;28;20240;-73
2021/12/12 09:07:36;;;;;;;19.77;11.20;;;;;;;;;;4996956;28;20217;-75
2021/12/12 09:10:01;;;;;;;16.53;11.67;;;;;;;;;;5004898;28;20859;-77
2021/12/12 09:12:34;;;;;;;17.27;11.33;;;;;;;;;;4992564;28;20241;-75
2021/12/12 09:15:29;;;;;;;18.07;11.57;;;;;;;;;;5004508;28;20274;-75
2021/12/12 09:18:00;;;;;;;17.43;10.80;;;;;;;;;;4989271;28;20203;-75
2021/12/12 09:20:35;;;;;;;17.40;10.63;;;;;;;;;;5001162;28;20242;-75
2021/12/12 09:23:09;;;;;;;17.50;11.43;;;;;;;;;;4994174;28;20277;-75
2021/12/12 09:25:51;;;;;;;19.40;11.50;;;;;;;;;;5001362;28;20186;-74
2021/12/12 09:28:27;;;;;;;15.73;11.10;;;;;;;;;;4989835;28;20654;-74
2021/12/12 09:30:56;;;;;;;18.83;11.77;;;;;;;;;;5004953;28;20179;-74
2021/12/12 09:33:38;;;;;;;15.50;11.17;;;;;;;;;;5006698;28;20276;-74
2021/12/12 09:36:09;;;;;;;19.00;11.67;;;;;;;;;;5001523;28;20183;-73
2021/12/12 09:38:54;;;;;;;21.33;13.07;;;;;;;;;;5012220;28;20183;-75
2021/12/12 09:41:56;;;;;;;18.67;12.40;;;;;;;;;;5005824;28;20647;-74
2021/12/12 09:45:02;;;;;;;19.17;12.63;;;;;;;;;;4995745;28;20542;-73
2021/12/12 09:47:59;;;;;;;21.57;12.90;;;;;;;;;;5005032;28;20187;-74
2021/12/12 09:53:42;;;;;;;17.97;12.13;;;;;;;;;;4993771;28;20721;-74
2021/12/12 09:56:59;;;;;;;20.27;12.87;;;;;;;;;;5010036;28;20665;-73
2021/12/12 09:59:42;;;;;;;18.17;12.10;;;;;;;;;;4963378;28;20250;-74
2021/12/12 10:02:13;;;;;;;20.70;13.17;;;;;;;;;;4998377;28;20187;-73
2021/12/12 10:04:47;;;;;;;20.30;13.13;;;;;;;;;;4999623;28;20245;-73
2021/12/12 10:07:39;;;;;;;18.07;12.77;;;;;;;;;;5000007;28;20189;-73
2021/12/12 10:10:13;;;;;;;20.37;12.40;;;;;;;;;;5013683;28;20291;-73
2021/12/12 10:12:52;;;;;;;19.83;12.40;;;;;;;;;;5010132;28;20257;-73
2021/12/12 10:15:23;;;;;;;19.97;12.60;;;;;;;;;;5001063;28;20186;-73
2021/12/12 10:18:24;;;;;;;20.43;12.60;;;;;;;;;;5008137;28;20212;-73
2021/12/12 10:21:04;;;;;;;21.50;12.60;;;;;;;;;;5007139;28;20229;-73
2021/12/12 10:23:52;;;;;;;19.47;12.57;;;;;;;;;;5011025;28;20171;-73
2021/12/12 10:26:28;;;;;;;21.87;12.70;;;;;;;;;;5013300;28;20206;-72
2021/12/12 10:28:59;;;;;;;21.80;12.70;;;;;;;;;;5005978;28;20175;-72
2021/12/12 10:31:28;;;;;;;21.07;13.23;;;;;;;;;;5004989;28;20552;-72
2021/12/12 10:33:56;;;;;;;20.83;12.63;;;;;;;;;;5012088;28;20520;-73
2021/12/12 10:36:29;;;;;;;20.50;13.33;;;;;;;;;;4995902;28;20293;-73
2021/12/12 10:39:10;;;;;;;18.60;12.90;;;;;;;;;;5007872;28;20182;-73
2021/12/12 10:41:46;;;;;;;22.07;12.33;;;;;;;;;;5007370;28;20186;-72
2021/12/12 10:44:17;;;;;;;24.77;13.07;;;;;;;;;;5012760;28;20526;-73
2021/12/12 10:46:45;;;;;;;19.73;12.40;;;;;;;;;;5002523;28;20182;-73
2021/12/12 10:49:26;;;;;;;17.87;11.00;;;;;;;;;;5009787;28;20198;-72
2021/12/12 10:52:19;;;;;;;17.23;11.57;;;;;;;;;;4999683;28;20214;-73
2021/12/12 10:54:54;;;;;;;18.47;11.50;;;;;;;;;;5011036;28;20222;-72
2021/12/12 10:57:27;;;;;;;16.73;10.70;;;;;;;;;;5000675;28;20202;-73
2021/12/12 11:00:03;;;;;;;19.10;11.90;;;;;;;;;;5010705;28;20186;-72
2021/12/12 11:02:36;;;;;;;17.80;11.47;;;;;;;;;;4998893;28;20549;-72
2021/12/12 11:05:15;;;;;;;18.13;12.00;;;;;;;;;;5025996;28;20195;-72
2021/12/12 11:07:47;;;;;;;21.40;12.03;;;;;;;;;;4999947;28;20187;-73
2021/12/12 11:10:24;;;;;;;16.93;11.57;;;;;;;;;;5015727;28;21333;-73
2021/12/12 11:13:06;;;;;;;17.83;12.20;;;;;;;;;;5000095;28;20650;-73
2021/12/12 11:15:42;;;;;;;16.80;11.07;;;;;;;;;;5011063;28;20199;-73
2021/12/12 11:18:13;;;;;;;18.93;12.07;;;;;;;;;;5000327;28;20245;-72
2021/12/12 11:20:49;;;;;;;21.70;12.37;;;;;;;;;;5010269;28;20231;-73
2021/12/12 11:23:20;;;;;;;20.73;13.30;;;;;;;;;;4995348;28;20186;-72
2021/12/12 11:25:54;;;;;;;21.63;12.70;;;;;;;;;;5006218;28;20209;-73
2021/12/12 11:28:24;;;;;;;21.37;12.83;;;;;;;;;;4994214;28;20261;-72
2021/12/12 11:31:31;;;;;;;21.97;12.70;;;;;;;;;;5007284;28;20289;-72
2021/12/12 11:33:57;;;;;;;18.43;11.50;;;;;;;;;;4985823;28;20198;-73
2021/12/12 11:36:31;;;;;;;17.30;12.20;;;;;;;;;;5005497;28;20264;-73
2021/12/12 11:39:29;;;;;;;19.37;12.73;;;;;;;;;;5003538;28;20209;-72
2021/12/12 11:42:04;;;;;;;20.23;13.13;;;;;;;;;;5005178;28;20198;-73
2021/12/12 11:44:36;;;;;;;21.93;14.03;;;;;;;;;;4994127;28;20191;-72
2021/12/12 11:47:22;;;;;;;21.90;12.57;;;;;;;;;;5006233;28;20594;-72
2021/12/12 11:50:05;;;;;;;20.90;12.60;;;;;;;;;;4999275;28;20585;-72
2021/12/12 11:52:38;;;;;;;21.27;12.90;;;;;;;;;;5002882;28;20332;-72
2021/12/12 11:55:09;;;;;;;20.63;12.30;;;;;;;;;;4998724;28;20229;-72
2021/12/12 11:57:46;;;;;;;20.00;13.07;;;;;;;;;;5006378;28;20200;-72
2021/12/12 12:00:19;;;;;;;21.07;12.40;;;;;;;;;;4996609;28;20198;-72
2021/12/12 12:03:13;;;;;;;19.40;12.70;;;;;;;;;;5005984;28;20195;-72
2021/12/12 12:06:02;;;;;;;18.50;11.63;;;;;;;;;;5001169;28;20230;-72
2021/12/12 12:08:39;;;;;;;20.00;13.13;;;;;;;;;;5005532;28;20259;-71
2021/12/12 12:11:22;;;;;;;19.55;13.65;;;;;;;;;;4999427;28;20277;-72
2021/12/12 12:14:09;;;;;;;17.83;11.23;;;;;;;;;;5011193;28;20657;-72
2021/12/12 12:16:55;;;;;;;20.80;12.88;;;;;;;;;;5016276;28;20198;-74
2021/12/12 12:19:35;;;;;;;20.77;13.30;;;;;;;;;;5008039;28;20241;-73
2021/12/12 12:22:24;;;;;;;25.53;14.77;;;;;;;;;;4994529;28;20190;-73
2021/12/12 12:25:01;;;;;;;19.25;14.25;;;;;;;;;;4996862;28;20273;-73
2021/12/12 12:27:36;;;;;;;23.57;15.13;;;;;;;;;;4989454;28;20178;-73
2021/12/12 12:30:04;;;;;;;26.30;14.83;;;;;;;;;;5008856;28;20179;-74
2021/12/12 12:32:57;;;;;;;25.37;14.17;;;;;;;;;;4990443;28;20187;-73
2021/12/12 12:36:19;;;;;;;23.88;14.35;;;;;;;;;;4994063;28;20243;-73
2021/12/12 12:39:36;;;;;;;21.83;13.27;;;;;;;;;;4307707;28;10000810;-73
2021/12/12 12:42:01;;;;;;;24.03;14.37;;;;;;;;;;4988728;28;20232;-71
2021/12/12 12:44:30;;;;;;;21.83;14.37;;;;;;;;;;5000708;28;20618;-71
2021/12/12 12:47:33;;;;;;;21.53;14.30;;;;;;;;;;4986963;28;20283;-71
2021/12/12 12:50:56;;;;;;;22.37;13.83;;;;;;;;;;4999315;28;20190;-72
2021/12/12 12:54:01;;;;;;;20.93;14.00;;;;;;;;;;4970770;28;20230;-73
2021/12/12 12:56:58;;;;;;;18.93;13.00;;;;;;;;;;4967142;28;20289;-71
2021/12/12 12:59:50;;;;;;;23.70;13.60;;;;;;;;;;4999898;28;20194;-72
2021/12/12 13:02:21;;;;;;;20.03;12.77;;;;;;;;;;4995702;28;20210;-72
2021/12/12 13:05:07;;;;;;;19.83;12.97;;;;;;;;;;5000951;28;20712;-71
2021/12/12 13:08:17;;;;;;;19.73;12.93;;;;;;;;;;4992076;28;20209;-72
2021/12/12 13:10:45;;;;;;;20.57;13.10;;;;;;;;;;5011253;28;20651;-73
2021/12/12 13:13:27;;;;;;;22.00;13.60;;;;;;;;;;4999494;28;20824;-72
2021/12/12 13:16:18;;;;;;;21.10;12.80;;;;;;;;;;5001800;28;20186;-71
2021/12/12 13:18:52;;;;;;;20.80;11.83;;;;;;;;;;4994354;28;20519;-71
2021/12/12 13:21:34;;;;;;;19.63;12.27;;;;;;;;;;5006451;28;20207;-72
2021/12/12 13:24:18;;;;;;;19.83;12.80;;;;;;;;;;4993512;28;20693;-71
2021/12/12 13:27:50;;;;;;;18.67;11.68;;;;;;;;;;5004901;28;20189;-71
2021/12/12 13:30:25;;;;;;;20.43;12.60;;;;;;;;;;5005658;28;20278;-71
2021/12/12 13:33:04;;;;;;;19.45;11.88;;;;;;;;;;4994346;28;20191;-70
2021/12/12 13:36:00;;;;;;;19.57;13.30;;;;;;;;;;4998750;28;20195;-71
2021/12/12 13:38:49;;;;;;;22.43;13.13;;;;;;;;;;5015808;28;20653;-71
2021/12/12 13:41:14;;;;;;;18.37;12.20;;;;;;;;;;4996295;28;20593;-70
2021/12/12 13:43:52;;;;;;;19.50;11.80;;;;;;;;;;5018487;28;20622;-70
2021/12/12 13:46:26;;;;;;;19.13;12.88;;;;;;;;;;4996129;28;20248;-71
2021/12/12 13:49:03;;;;;;;19.90;12.40;;;;;;;;;;4998430;28;20218;-71
2021/12/12 13:52:03;;;;;;;18.98;11.77;;;;;;;;;;4996653;28;20197;-71
2021/12/12 13:54:42;;;;;;;22.58;12.82;;;;;;;;;;5019575;28;20624;-71
2021/12/12 13:57:16;;;;;;;20.52;13.10;;;;;;;;;;5002336;28;20326;-71
2021/12/12 14:00:10;;;;;;;21.88;13.15;;;;;;;;;;5013137;28;20248;-71
2021/12/12 14:02:38;;;;;;;23.00;13.00;;;;;;;;;;5008596;28;20578;-71
2021/12/12 14:05:23;;;;;;;22.25;12.73;;;;;;;;;;5004669;28;20282;-71
2021/12/12 14:08:22;;;;;;;22.15;11.82;;;;;;;;;;5002113;28;20671;-71
2021/12/12 14:10:55;;;;;;;21.58;14.10;;;;;;;;;;4996166;28;20178;-72
2021/12/12 14:13:24;;;;;;;22.33;13.25;;;;;;;;;;5014124;28;20539;-72
2021/12/12 14:16:07;;;;;;;20.58;13.75;;;;;;;;;;5005393;28;20408;-71
2021/12/12 14:18:41;;;;;;;23.77;14.13;;;;;;;;;;5012168;28;20270;-71
2021/12/12 14:21:07;;;;;;;21.25;14.15;;;;;;;;;;5003431;28;20304;-71
2021/12/12 14:23:37;;;;;;;23.75;14.80;;;;;;;;;;4992770;28;20191;-71
2021/12/12 14:26:11;;;;;;;23.30;14.32;;;;;;;;;;5005180;28;20186;-71
2021/12/12 14:28:39;;;;;;;21.35;14.45;;;;;;;;;;4997304;28;20549;-71
2021/12/12 14:31:07;;;;;;;21.95;13.43;;;;;;;;;;5009997;28;20477;-71
2021/12/12 14:33:39;;;;;;;24.25;14.55;;;;;;;;;;4999009;28;20187;-71
2021/12/12 14:36:10;;;;;;;20.08;13.40;;;;;;;;;;5003819;28;20545;-71
2021/12/12 14:38:35;;;;;;;25.90;14.23;;;;;;;;;;4991455;28;20198;-70
2021/12/12 14:41:03;;;;;;;18.60;13.45;;;;;;;;;;5003712;28;20252;-70
2021/12/12 14:43:36;;;;;;;24.33;14.13;;;;;;;;;;5001421;28;20195;-71
2021/12/12 14:46:13;;;;;;;21.95;14.25;;;;;;;;;;5010424;28;20187;-70
2021/12/12 14:48:46;;;;;;;24.05;15.57;;;;;;;;;;5000085;28;20213;-71
2021/12/12 14:51:18;;;;;;;24.95;16.33;;;;;;;;;;5005771;28;20206;-71
2021/12/12 14:53:48;;;;;;;25.15;14.95;;;;;;;;;;4998887;28;20528;-70
2021/12/12 14:56:17;;;;;;;22.52;14.95;;;;;;;;;;5013735;28;20215;-70
2021/12/12 14:58:50;;;;;;;22.02;14.30;;;;;;;;;;5000915;28;20210;-70
2021/12/12 15:01:39;;;;;;;23.48;14.98;;;;;;;;;;5010603;28;20281;-70
2021/12/12 15:04:34;;;;;;;26.70;14.20;;;;;;;;;;4998623;28;20186;-70
2021/12/12 15:07:08;;;;;;;23.50;14.95;;;;;;;;;;5000767;28;20203;-70
2021/12/12 15:09:42;;;;;;;23.88;14.65;;;;;;;;;;5005298;28;20221;-71
2021/12/12 15:12:16;;;;;;;26.45;14.32;;;;;;;;;;5009136;28;20206;-71